aviador You're here:

KBLU Decoded Metar

EMIGRANT GAP in CA, USA
Report Time2018-05-20 18:52:00
UTC Time2018-05-20 19:36:34
Flight Rules vfr VFR
WindVRB at 06 Gusting to 15 kt
Visibility9999 m
Phenomena:N/A
Clouds:N/A
Expected CloudBase > 4,000 ft AGL from Temp-Dew spread
CeilingNone
Temp14°C (ISA +9)
Dew Point04°C (51% RH)
AAT10.5°C
QNH1017 hPa
Density Alt6,371 ft
Elevation5,279 ft
Report Wrong Elevation
Raw Report
KBLU 201852Z AUTO VRB06G15KT 10SM CLR 14/04 A3002 RMK AO2 SLP110
T01390039=

Extra information for KBLU:More info

Metar Taf Metar & Taf Last 4 Metars F.Rules Stats Wind Profile Meteogram Temp Stats Airport Information Weather charts Add Link Nearby VenuesMetar ALERT Operation Metar Decoded Social comments

AIRNAV info for KBLU